Time;durP1;ratioP1;P1;durP2;ratioP2;P2;SDS_P1;SDS_P2;PMS_P1;PMS_P2;Temp;Humidity;BMP_temperature;BMP_pressure;BME280_temperature;BME280_humidity;BME280_pressure;Samples;Min_cycle;Max_cycle;Signal;HPM_P1;HPM_P2
2022/04/12 00:00:59;;;;;;;6.57;4.55;;;9.50;78.00;;;;;;5024861;28;20032;-74
2022/04/12 00:03:26;;;;;;;10.00;4.93;;;9.40;78.10;;;;;;5036564;28;20025;-75
2022/04/12 00:05:53;;;;;;;7.05;4.97;;;9.50;78.30;;;;;;5057272;28;21165;-75
2022/04/12 00:08:20;;;;;;;9.25;4.78;;;9.40;78.40;;;;;;5038375;28;20104;-74
2022/04/12 00:10:49;;;;;;;5.80;3.92;;;9.40;78.40;;;;;;5049902;28;20419;-74
2022/04/12 00:13:18;;;;;;;6.50;4.35;;;9.40;78.60;;;;;;5056951;28;20774;-74
2022/04/12 00:15:45;;;;;;;7.13;4.30;;;9.30;78.70;;;;;;5040009;28;20025;-74
2022/04/12 00:20:56;;;;;;;7.00;4.95;;;9.40;79.00;;;;;;5058610;28;20033;-75
2022/04/12 00:23:23;;;;;;;6.13;4.85;;;9.40;79.10;;;;;;5056878;28;20020;-75
2022/04/12 00:25:50;;;;;;;6.07;4.22;;;9.30;79.30;;;;;;5055612;28;20380;-74
2022/04/12 00:28:16;;;;;;;6.07;3.80;;;9.30;79.40;;;;;;5058971;28;20013;-75
2022/04/12 00:30:43;;;;;;;7.05;3.92;;;9.30;79.40;;;;;;5058321;28;20045;-75
2022/04/12 00:33:09;;;;;;;8.65;4.30;;;9.30;79.50;;;;;;5028735;28;20028;-75
2022/04/12 00:35:36;;;;;;;5.03;3.70;;;9.20;79.60;;;;;;5055554;28;20009;-75
2022/04/12 00:38:13;;;;;;;6.25;4.78;;;9.20;79.70;;;;;;5038132;28;21124;-75
2022/04/12 00:40:40;;;;;;;6.78;4.80;;;9.20;80.10;;;;;;5057819;28;20027;-75
2022/04/12 00:43:07;;;;;;;7.30;5.45;;;9.20;80.10;;;;;;5035032;28;20384;-75
2022/04/12 00:45:33;;;;;;;5.88;3.95;;;9.20;80.30;;;;;;5037139;28;20477;-75
2022/04/12 00:48:00;;;;;;;7.47;4.00;;;9.20;80.40;;;;;;5055261;28;20028;-75
2022/04/12 00:50:26;;;;;;;9.73;5.10;;;9.20;81.00;;;;;;5039741;28;20518;-75
2022/04/12 00:52:55;;;;;;;5.95;4.22;;;9.10;80.60;;;;;;5008563;28;20033;-75
2022/04/12 00:55:22;;;;;;;5.68;3.92;;;9.10;80.80;;;;;;5044496;28;20029;-75
2022/04/12 00:57:49;;;;;;;5.45;3.40;;;9.10;80.80;;;;;;5039111;28;20040;-75
2022/04/12 01:00:16;;;;;;;6.55;3.92;;;9.00;80.90;;;;;;5038141;28;20039;-75
2022/04/12 01:02:42;;;;;;;8.88;4.60;;;9.00;81.10;;;;;;5052981;28;20036;-75
2022/04/12 01:05:09;;;;;;;8.30;5.18;;;8.90;81.40;;;;;;5038530;28;20036;-75
2022/04/12 01:07:36;;;;;;;10.85;5.00;;;8.90;81.60;;;;;;5060952;28;20024;-75
2022/04/12 01:10:04;;;;;;;5.07;3.70;;;9.00;81.70;;;;;;5066001;28;20020;-75
2022/04/12 01:12:38;;;;;;;6.90;5.00;;;9.00;81.70;;;;;;5061391;28;21272;-75
2022/04/12 01:15:16;;;;;;;7.85;4.68;;;9.00;81.80;;;;;;5060590;28;20017;-75
2022/04/12 01:17:44;;;;;;;7.57;5.65;;;8.90;82.00;;;;;;5060974;28;20320;-75
2022/04/12 01:20:15;;;;;;;8.85;4.80;;;9.00;82.20;;;;;;5060963;28;20024;-75
2022/04/12 01:23:08;;;;;;;6.60;4.43;;;9.00;82.10;;;;;;5020787;28;20039;-74
2022/04/12 01:25:35;;;;;;;5.18;3.13;;;8.90;82.20;;;;;;5040103;28;20043;-75
2022/04/12 01:28:01;;;;;;;5.85;3.80;;;8.90;82.20;;;;;;5043704;28;20017;-75
2022/04/12 01:30:28;;;;;;;5.30;3.17;;;8.90;82.40;;;;;;5052191;28;20037;-74
2022/04/12 01:32:54;;;;;;;5.45;3.53;;;8.80;82.40;;;;;;5037585;28;20029;-75
2022/04/12 01:35:21;;;;;;;5.13;3.67;;;8.80;82.60;;;;;;5037269;28;20257;-76
2022/04/12 01:37:47;;;;;;;6.85;3.50;;;8.70;82.70;;;;;;5039634;28;20037;-76
2022/04/12 01:40:14;;;;;;;8.82;4.03;;;8.70;82.90;;;;;;5036556;28;20037;-75
2022/04/12 01:42:40;;;;;;;7.10;4.25;;;8.60;83.20;;;;;;5000091;28;20041;-76
2022/04/12 01:45:07;;;;;;;8.13;4.22;;;8.60;83.40;;;;;;5035259;28;20036;-76
2022/04/12 01:47:34;;;;;;;7.35;4.78;;;8.60;84.10;;;;;;5004324;28;20014;-75
2022/04/12 01:50:01;;;;;;;5.05;3.67;;;8.70;83.70;;;;;;5020688;28;20024;-75
2022/04/12 01:52:28;;;;;;;6.20;3.42;;;8.70;83.90;;;;;;5018937;28;20036;-75
2022/04/12 01:54:54;;;;;;;6.22;4.40;;;8.70;83.70;;;;;;5015025;28;20041;-75
2022/04/12 01:57:20;;;;;;;5.50;3.13;;;8.70;83.80;;;;;;5017262;28;20021;-75
2022/04/12 01:59:47;;;;;;;6.55;4.57;;;8.70;83.90;;;;;;5019857;28;20653;-75
2022/04/12 02:02:13;;;;;;;6.13;3.90;;;8.60;84.10;;;;;;4999562;28;20033;-75
2022/04/12 02:04:40;;;;;;;5.28;3.38;;;8.60;84.10;;;;;;5001718;28;20044;-76
2022/04/12 02:07:06;;;;;;;3.70;2.67;;;8.60;84.10;;;;;;5039637;28;20472;-75
2022/04/12 02:09:33;;;;;;;4.95;3.25;;;8.60;84.20;;;;;;5003641;28;20036;-76
2022/04/12 02:11:59;;;;;;;3.75;2.75;;;8.60;84.50;;;;;;5004416;28;20036;-75
2022/04/12 02:14:26;;;;;;;4.85;2.95;;;8.60;84.60;;;;;;5018680;28;20029;-75
2022/04/12 02:16:52;;;;;;;6.75;3.45;;;8.60;84.60;;;;;;5005223;28;20032;-75
2022/04/12 02:19:19;;;;;;;5.78;3.67;;;8.60;84.60;;;;;;5036423;28;20317;-76
2022/04/12 02:21:45;;;;;;;8.65;3.70;;;8.60;84.60;;;;;;5038070;28;20036;-75
2022/04/12 02:24:12;;;;;;;4.63;2.90;;;8.50;84.80;;;;;;5021703;28;20101;-75
2022/04/12 02:26:38;;;;;;;4.57;2.83;;;8.50;84.80;;;;;;5000697;28;20033;-75
2022/04/12 02:29:06;;;;;;;4.60;3.13;;;8.50;84.90;;;;;;5033752;28;20024;-76
2022/04/12 02:31:33;;;;;;;5.95;4.10;;;8.50;85.00;;;;;;5027695;28;20415;-75
2022/04/12 02:33:59;;;;;;;7.40;3.65;;;8.50;85.40;;;;;;5055316;28;20020;-75
2022/04/12 02:36:26;;;;;;;5.60;3.88;;;8.50;85.50;;;;;;5053268;28;20357;-75
2022/04/12 02:38:52;;;;;;;6.90;4.32;;;8.50;85.50;;;;;;5027439;28;20041;-75
2022/04/12 02:41:19;;;;;;;6.65;3.78;;;8.50;85.60;;;;;;5036839;28;20032;-75
2022/04/12 02:43:45;;;;;;;4.70;2.88;;;8.50;85.60;;;;;;5054141;28;20424;-75
2022/04/12 02:46:11;;;;;;;6.55;3.25;;;8.60;85.60;;;;;;5052999;28;20029;-75
2022/04/12 02:48:38;;;;;;;4.57;2.30;;;8.50;85.70;;;;;;5057294;28;20036;-76
2022/04/12 02:51:04;;;;;;;6.50;3.42;;;8.50;85.70;;;;;;5055434;28;20032;-75
2022/04/12 02:53:30;;;;;;;8.00;4.07;;;8.50;85.90;;;;;;5033096;28;20388;-74
2022/04/12 02:55:57;;;;;;;4.70;2.92;;;8.50;86.10;;;;;;5020569;28;20040;-75
2022/04/12 02:58:23;;;;;;;3.47;2.47;;;8.50;86.10;;;;;;5048336;28;20029;-75
2022/04/12 03:00:50;;;;;;;4.57;2.83;;;8.50;86.10;;;;;;5045620;28;20056;-76
2022/04/12 03:03:16;;;;;;;4.70;3.05;;;8.50;86.20;;;;;;5041813;28;20032;-75
2022/04/12 03:05:42;;;;;;;5.55;3.10;;;8.40;86.30;;;;;;5037266;28;20017;-76
2022/04/12 03:08:09;;;;;;;6.72;2.92;;;8.40;86.40;;;;;;5037518;28;20052;-75
2022/04/12 03:10:35;;;;;;;4.85;2.50;;;8.40;86.60;;;;;;5033534;28;20036;-75
2022/04/12 03:13:02;;;;;;;4.60;2.92;;;8.40;86.80;;;;;;5052570;28;20028;-75
2022/04/12 03:15:28;;;;;;;5.00;3.30;;;8.40;86.80;;;;;;5054833;28;20020;-75
2022/04/12 03:17:55;;;;;;;3.80;2.72;;;8.40;87.10;;;;;;5058130;28;20039;-76
2022/04/12 03:20:21;;;;;;;4.45;2.60;;;8.30;87.30;;;;;;5058386;28;20033;-75
2022/04/12 03:22:48;;;;;;;5.70;3.05;;;8.30;87.40;;;;;;5035206;28;20032;-75
2022/04/12 03:25:14;;;;;;;5.00;2.38;;;8.30;87.40;;;;;;5047474;28;20029;-75
2022/04/12 03:27:41;;;;;;;5.43;2.85;;;8.30;87.50;;;;;;5046021;28;20371;-76
2022/04/12 03:30:07;;;;;;;4.10;2.97;;;8.20;87.60;;;;;;5056407;28;20028;-75
2022/04/12 03:32:34;;;;;;;5.47;3.65;;;8.20;87.90;;;;;;5053669;28;20576;-75
2022/04/12 03:35:00;;;;;;;5.78;2.70;;;8.20;88.20;;;;;;5055315;28;20384;-75
2022/04/12 03:37:27;;;;;;;5.50;3.72;;;8.20;88.20;;;;;;5036790;28;20020;-75
2022/04/12 03:39:53;;;;;;;7.70;3.70;;;8.20;88.40;;;;;;5040122;28;20028;-76
2022/04/12 03:42:20;;;;;;;5.63;3.08;;;8.10;88.70;;;;;;5037889;28;20045;-75
2022/04/12 03:44:46;;;;;;;3.92;2.85;;;8.10;88.80;;;;;;5056926;28;20372;-76
2022/04/12 03:47:12;;;;;;;5.00;3.05;;;8.10;88.90;;;;;;5056848;28;20017;-75
2022/04/12 03:49:39;;;;;;;4.65;3.40;;;8.10;89.00;;;;;;5054401;28;20499;-75
2022/04/12 03:52:06;;;;;;;5.45;2.80;;;8.10;89.40;;;;;;5022640;28;20036;-75
2022/04/12 03:54:32;;;;;;;4.95;3.35;;;8.10;89.60;;;;;;5056227;28;20043;-75
2022/04/12 03:56:59;;;;;;;5.95;2.63;;;8.00;89.80;;;;;;5054306;28;20039;-75
2022/04/12 03:59:25;;;;;;;5.95;3.78;;;8.00;89.80;;;;;;5039502;28;20380;-75
2022/04/12 04:01:51;;;;;;;8.23;4.80;;;8.00;90.40;;;;;;5019553;28;20040;-75
2022/04/12 04:04:18;;;;;;;5.50;3.08;;;8.00;90.20;;;;;;5051159;28;20040;-75
2022/04/12 04:06:45;;;;;;;4.53;3.38;;;8.00;90.30;;;;;;5023372;28;20115;-75
2022/04/12 04:09:12;;;;;;;3.95;2.13;;;8.00;90.20;;;;;;5059423;28;20464;-75
2022/04/12 04:11:38;;;;;;;3.78;2.00;;;8.00;90.20;;;;;;5078066;28;20020;-75
2022/04/12 04:14:10;;;;;;;5.53;2.75;;;8.00;90.20;;;;;;5072309;28;20058;-75
2022/04/12 04:16:38;;;;;;;5.68;3.00;;;7.90;90.30;;;;;;5040215;28;20031;-75
2022/04/12 04:19:08;;;;;;;5.55;3.35;;;7.90;90.40;;;;;;5059192;28;20028;-75
2022/04/12 04:21:36;;;;;;;6.75;3.72;;;8.00;90.50;;;;;;5056622;28;20024;-75
2022/04/12 04:24:03;;;;;;;4.50;2.72;;;7.90;90.70;;;;;;5056667;28;20399;-75
2022/04/12 04:26:30;;;;;;;4.88;3.00;;;8.00;90.60;;;;;;5076421;28;20013;-75
2022/04/12 04:28:56;;;;;;;5.32;2.70;;;7.90;90.60;;;;;;5061002;28;20017;-75
2022/04/12 04:31:23;;;;;;;4.90;3.08;;;7.90;90.70;;;;;;5062377;28;20323;-75
2022/04/12 04:33:49;;;;;;;6.25;3.78;;;7.90;90.80;;;;;;5075752;28;20475;-75
2022/04/12 04:36:17;;;;;;;5.65;3.28;;;7.90;91.00;;;;;;5060919;28;20028;-75
2022/04/12 04:38:43;;;;;;;6.55;3.85;;;7.90;91.10;;;;;;5080868;28;20028;-76
2022/04/12 04:41:10;;;;;;;5.20;3.42;;;7.90;91.20;;;;;;5079754;28;20032;-75
2022/04/12 04:43:36;;;;;;;5.97;2.70;;;7.90;91.20;;;;;;5075453;28;20043;-76
2022/04/12 04:46:02;;;;;;;4.65;3.03;;;7.90;91.20;;;;;;5058857;28;20727;-75
2022/04/12 04:48:29;;;;;;;5.30;3.47;;;7.90;91.30;;;;;;5076999;28;20028;-75
2022/04/12 04:50:56;;;;;;;8.05;4.45;;;7.90;91.30;;;;;;5063626;28;20032;-74
2022/04/12 04:53:22;;;;;;;7.47;4.75;;;7.90;91.40;;;;;;5043974;28;20027;-75
2022/04/12 04:55:48;;;;;;;4.90;3.75;;;7.90;91.50;;;;;;5061962;28;20035;-75
2022/04/12 04:58:15;;;;;;;6.90;4.57;;;7.90;91.50;;;;;;5064634;28;20032;-75
2022/04/12 05:00:43;;;;;;;10.15;3.97;;;7.90;91.70;;;;;;5081234;28;21418;-75
2022/04/12 05:03:09;;;;;;;6.65;4.15;;;8.00;91.70;;;;;;5062048;28;20028;-75
2022/04/12 05:05:39;;;;;;;8.25;5.30;;;8.00;91.70;;;;;;5077686;28;20024;-74
2022/04/12 05:08:08;;;;;;;7.15;3.67;;;8.10;91.80;;;;;;5046649;28;20013;-76
2022/04/12 05:10:34;;;;;;;4.65;3.25;;;8.00;91.80;;;;;;5080914;28;20043;-75
2022/04/12 05:13:02;;;;;;;6.90;4.38;;;8.10;91.80;;;;;;5047723;28;20032;-76
2022/04/12 05:15:28;;;;;;;4.85;2.95;;;8.00;92.20;;;;;;5063105;28;20020;-75
2022/04/12 05:17:56;;;;;;;6.38;3.63;;;8.10;91.90;;;;;;5082140;28;20028;-75
2022/04/12 05:20:24;;;;;;;6.28;3.25;;;8.10;92.00;;;;;;5061842;28;20024;-74
2022/04/12 05:22:52;;;;;;;6.43;3.55;;;8.10;92.00;;;;;;5041489;28;20048;-76
2022/04/12 05:25:19;;;;;;;5.88;3.72;;;8.10;92.00;;;;;;5060040;28;20024;-76
2022/04/12 05:27:46;;;;;;;8.13;4.30;;;8.20;92.10;;;;;;5061703;28;20031;-74
2022/04/12 05:30:13;;;;;;;10.30;4.00;;;8.20;92.20;;;;;;5077359;28;20062;-76
2022/04/12 05:32:40;;;;;;;5.00;3.40;;;8.20;92.10;;;;;;5076065;28;20036;-74
2022/04/12 05:35:08;;;;;;;4.88;3.13;;;8.30;92.20;;;;;;5081540;28;20463;-74
2022/04/12 05:37:44;;;;;;;7.43;5.13;;;8.30;92.20;;;;;;5060520;28;20040;-74
2022/04/12 05:40:12;;;;;;;6.28;3.88;;;8.30;92.20;;;;;;5076395;28;20024;-74
2022/04/12 05:42:39;;;;;;;6.25;4.03;;;8.40;92.10;;;;;;5079211;28;20044;-73
2022/04/12 05:45:13;;;;;;;7.43;4.18;;;8.50;92.10;;;;;;5059501;28;20375;-74
2022/04/12 05:47:51;;;;;;;7.95;4.65;;;8.50;92.10;;;;;;5077557;28;20378;-76
2022/04/12 05:50:20;;;;;;;5.80;3.72;;;8.60;92.00;;;;;;5062115;28;20482;-75
2022/04/12 05:52:47;;;;;;;4.50;3.40;;;8.70;92.00;;;;;;5060899;28;20360;-74
2022/04/12 05:55:16;;;;;;;6.32;3.92;;;8.70;92.00;;;;;;5077928;28;20028;-74
2022/04/12 05:57:55;;;;;;;10.48;4.38;;;8.80;92.00;;;;;;5046937;28;20024;-74
2022/04/12 06:00:23;;;;;;;6.03;4.18;;;8.80;92.00;;;;;;5061082;28;20367;-74
2022/04/12 06:02:51;;;;;;;3.95;3.45;;;8.90;91.90;;;;;;5076761;28;20028;-73
2022/04/12 06:05:19;;;;;;;10.48;4.43;;;8.90;91.90;;;;;;5078619;28;20252;-74
2022/04/12 06:07:45;;;;;;;6.75;4.80;;;8.90;91.80;;;;;;5059897;28;20012;-74
2022/04/12 06:10:13;;;;;;;6.85;4.60;;;8.90;91.70;;;;;;5079651;28;20026;-74
2022/04/12 06:12:40;;;;;;;6.50;4.38;;;9.00;91.60;;;;;;5076121;28;20353;-74
2022/04/12 06:15:08;;;;;;;6.25;4.30;;;9.00;91.60;;;;;;5077317;28;20027;-74
2022/04/12 06:17:36;;;;;;;6.47;4.63;;;9.10;91.60;;;;;;5077896;28;20024;-74
2022/04/12 06:20:08;;;;;;;6.20;4.55;;;9.20;91.60;;;;;;5079966;28;20391;-73
2022/04/12 06:22:35;;;;;;;6.95;4.78;;;9.20;91.50;;;;;;5075025;28;20043;-73
2022/04/12 06:25:03;;;;;;;6.00;4.43;;;9.20;91.50;;;;;;5057078;28;20355;-74
2022/04/12 06:27:37;;;;;;;6.97;4.50;;;9.30;91.50;;;;;;5043163;28;20016;-74
2022/04/12 06:30:06;;;;;;;6.30;4.32;;;9.30;91.50;;;;;;5078311;28;20024;-74
2022/04/12 06:32:34;;;;;;;6.82;4.40;;;9.20;91.80;;;;;;5041318;28;20055;-74
2022/04/12 06:35:01;;;;;;;7.53;4.88;;;9.20;91.60;;;;;;5060350;28;20028;-74
2022/04/12 06:37:28;;;;;;;6.43;4.15;;;9.20;91.60;;;;;;5026899;28;20024;-74
2022/04/12 06:39:57;;;;;;;7.28;5.63;;;9.20;91.70;;;;;;5044992;28;20016;-74
2022/04/12 06:42:23;;;;;;;6.35;4.47;;;9.30;91.80;;;;;;5056285;28;20399;-74
2022/04/12 06:44:50;;;;;;;7.45;4.63;;;9.40;91.50;;;;;;5059913;28;20031;-74
2022/04/12 06:47:16;;;;;;;7.38;4.93;;;9.40;91.60;;;;;;5060369;28;20024;-75
2022/04/12 06:49:48;;;;;;;9.40;5.20;;;9.50;91.60;;;;;;5059424;28;20031;-73
2022/04/12 06:52:16;;;;;;;6.82;5.20;;;9.70;91.50;;;;;;5042057;28;20028;-74
2022/04/12 06:54:43;;;;;;;7.70;4.85;;;9.90;91.30;;;;;;5077918;28;20005;-74
2022/04/12 06:57:09;;;;;;;16.70;7.13;;;10.10;91.00;;;;;;5075628;28;20008;-73
2022/04/12 06:59:36;;;;;;;8.48;5.63;;;10.40;90.90;;;;;;5059672;28;21201;-74
2022/04/12 07:02:03;;;;;;;9.45;5.13;;;10.60;90.70;;;;;;5026204;28;20016;-74
2022/04/12 07:04:29;;;;;;;9.77;5.50;;;10.80;90.50;;;;;;5058051;28;20047;-74
2022/04/12 07:06:56;;;;;;;7.95;5.03;;;11.00;90.20;;;;;;5026670;28;20039;-74
2022/04/12 07:09:24;;;;;;;8.10;4.90;;;11.10;89.80;;;;;;5074762;28;20349;-74
2022/04/12 07:11:51;;;;;;;6.03;4.30;;;11.10;89.60;;;;;;5058748;28;20367;-74
2022/04/12 07:14:17;;;;;;;10.52;5.90;;;11.00;89.50;;;;;;5077383;28;20027;-74
2022/04/12 07:16:44;;;;;;;8.50;5.03;;;10.90;89.00;;;;;;5060115;28;20024;-74
2022/04/12 07:19:10;;;;;;;8.68;4.88;;;10.90;89.30;;;;;;5077672;28;20426;-74
2022/04/12 07:21:36;;;;;;;8.93;5.55;;;10.80;89.60;;;;;;5059910;28;20046;-74
2022/04/12 07:24:03;;;;;;;5.68;4.43;;;10.90;89.40;;;;;;5077024;28;20375;-73
2022/04/12 07:26:30;;;;;;;9.15;4.95;;;11.00;89.50;;;;;;5076970;28;20024;-74
2022/04/12 07:28:58;;;;;;;6.60;5.05;;;11.10;89.50;;;;;;5057845;28;20039;-74
2022/04/12 07:31:24;;;;;;;8.50;6.03;;;11.20;89.70;;;;;;5080433;28;20070;-74
2022/04/12 07:33:51;;;;;;;12.63;5.88;;;11.40;89.00;;;;;;5075839;28;20024;-74
2022/04/12 07:36:18;;;;;;;7.50;5.45;;;11.60;88.50;;;;;;5056449;28;20028;-74
2022/04/12 07:38:44;;;;;;;7.50;5.32;;;11.70;88.20;;;;;;5067894;28;20016;-74
2022/04/12 07:41:11;;;;;;;12.05;6.32;;;11.90;87.50;;;;;;5064494;28;20371;-73
2022/04/12 07:43:37;;;;;;;11.70;6.90;;;12.00;87.20;;;;;;5065606;28;20040;-74
2022/04/12 07:46:04;;;;;;;6.78;5.28;;;12.10;87.10;;;;;;5069013;28;20083;-74
2022/04/12 07:48:31;;;;;;;10.00;5.72;;;12.10;87.00;;;;;;5061175;28;20512;-74
2022/04/12 07:50:57;;;;;;;8.65;6.50;;;12.20;87.20;;;;;;5060824;28;20020;-74
2022/04/12 07:53:24;;;;;;;8.25;6.20;;;12.30;87.50;;;;;;5076753;28;20464;-74
2022/04/12 07:55:50;;;;;;;8.52;5.78;;;12.40;87.80;;;;;;5064539;28;20062;-74
2022/04/12 07:58:17;;;;;;;8.38;6.25;;;12.60;87.80;;;;;;5045808;28;20031;-74
2022/04/12 08:00:43;;;;;;;8.27;6.15;;;12.70;87.60;;;;;;5078940;28;20036;-74
2022/04/12 08:03:09;;;;;;;6.25;5.35;;;12.80;87.80;;;;;;5055181;28;20032;-74
2022/04/12 08:05:36;;;;;;;8.20;5.85;;;13.00;87.80;;;;;;5037814;28;20032;-74
2022/04/12 08:08:03;;;;;;;8.43;6.00;;;13.10;87.60;;;;;;5058381;28;20498;-74
2022/04/12 08:10:29;;;;;;;9.38;5.90;;;13.30;87.50;;;;;;5039531;28;20591;-74
2022/04/12 08:12:56;;;;;;;8.93;4.97;;;13.50;87.50;;;;;;5039054;28;20028;-74
2022/04/12 08:15:23;;;;;;;6.13;5.53;;;13.70;87.30;;;;;;5027740;28;20035;-74
2022/04/12 08:17:51;;;;;;;14.98;5.72;;;13.90;87.00;;;;;;5059745;28;20027;-75
2022/04/12 08:20:17;;;;;;;9.15;6.30;;;14.10;86.60;;;;;;5059543;28;20028;-74
2022/04/12 08:22:43;;;;;;;7.85;4.95;;;14.20;86.10;;;;;;5057475;28;20024;-75
2022/04/12 08:25:10;;;;;;;8.73;6.35;;;14.40;86.20;;;;;;5056185;28;20340;-74
2022/04/12 08:27:39;;;;;;;7.65;5.80;;;14.60;85.20;;;;;;5077069;28;20020;-74
2022/04/12 08:30:09;;;;;;;7.93;5.28;;;14.80;85.30;;;;;;5077280;28;20031;-74
2022/04/12 08:32:36;;;;;;;6.53;4.80;;;14.90;84.80;;;;;;5075244;28;20044;-75
2022/04/12 08:35:03;;;;;;;7.72;4.68;;;15.00;84.20;;;;;;5041983;28;20024;-75
2022/04/12 08:37:30;;;;;;;8.80;4.50;;;15.20;83.90;;;;;;5074618;28;20448;-74
2022/04/12 08:39:57;;;;;;;6.97;3.85;;;15.40;83.40;;;;;;5075052;28;20112;-74
2022/04/12 08:42:23;;;;;;;9.85;5.32;;;15.60;82.70;;;;;;5073144;28;20036;-74
2022/04/12 08:44:50;;;;;;;6.60;4.32;;;15.70;80.80;;;;;;5054930;28;20143;-74
2022/04/12 08:47:19;;;;;;;7.40;4.82;;;15.80;79.90;;;;;;5076202;28;20055;-74
2022/04/12 08:49:46;;;;;;;5.45;4.28;;;15.90;79.90;;;;;;5078434;28;20013;-74
2022/04/12 08:52:14;;;;;;;8.88;5.78;;;16.00;80.30;;;;;;5026496;28;20036;-74
2022/04/12 08:54:43;;;;;;;6.53;4.70;;;16.10;79.40;;;;;;5073140;28;20029;-74
2022/04/12 08:57:11;;;;;;;10.20;5.05;;;16.30;79.50;;;;;;5044670;28;20127;-74
2022/04/12 08:59:38;;;;;;;7.68;5.30;;;16.50;79.30;;;;;;5055665;28;20032;-74
2022/04/12 09:02:09;;;;;;;6.43;3.70;;;16.60;77.80;;;;;;5056351;28;20028;-74
2022/04/12 09:04:36;;;;;;;7.20;5.43;;;16.60;78.20;;;;;;5059346;28;20624;-75
2022/04/12 09:07:06;;;;;;;8.45;5.25;;;16.70;78.10;;;;;;5077303;28;20024;-74
2022/04/12 09:09:33;;;;;;;8.32;4.20;;;16.80;78.00;;;;;;5057967;28;20035;-75
2022/04/12 09:12:14;;;;;;;9.13;4.85;;;16.90;78.10;;;;;;5058389;28;20020;-75
2022/04/12 09:14:46;;;;;;;8.98;4.70;;;16.90;77.60;;;;;;5045692;28;20316;-75
2022/04/12 09:17:15;;;;;;;9.23;5.68;;;17.00;77.40;;;;;;5076007;28;20047;-74
2022/04/12 09:19:51;;;;;;;9.07;5.88;;;17.00;77.50;;;;;;5063132;28;20087;-75
2022/04/12 09:22:22;;;;;;;7.60;4.40;;;17.00;77.10;;;;;;5079602;28;20043;-75
2022/04/12 09:25:00;;;;;;;7.85;4.55;;;17.00;77.40;;;;;;5059690;28;20048;-75
2022/04/12 09:27:28;;;;;;;9.40;5.22;;;17.20;77.60;;;;;;5059788;28;20025;-75
2022/04/12 09:30:01;;;;;;;9.75;4.63;;;17.30;76.80;;;;;;5080864;28;20012;-75
2022/04/12 09:32:46;;;;;;;8.15;4.60;;;17.40;76.90;;;;;;5077376;28;20383;-75
2022/04/12 09:35:13;;;;;;;7.95;5.20;;;17.60;76.80;;;;;;5062367;28;20471;-75
2022/04/12 09:37:42;;;;;;;7.00;4.68;;;17.70;76.20;;;;;;5046251;28;20028;-75
2022/04/12 09:40:14;;;;;;;7.93;4.72;;;17.80;76.00;;;;;;5062580;28;20055;-76
2022/04/12 09:42:57;;;;;;;9.32;6.03;;;17.90;76.30;;;;;;5059554;28;20471;-75
2022/04/12 09:45:29;;;;;;;7.93;5.00;;;18.10;75.20;;;;;;5044546;28;20042;-75
2022/04/12 09:47:57;;;;;;;;;;;18.10;74.70;;;;;;5061737;28;20024;-75
2022/04/12 09:50:25;;;;;;;7.68;5.15;;;18.20;74.40;;;;;;5062233;28;19927;-75
2022/04/12 09:53:00;;;;;;;8.07;5.25;;;18.20;74.60;;;;;;5080309;28;20008;-75
2022/04/12 09:55:44;;;;;;;7.45;4.82;;;18.30;74.70;;;;;;5076631;28;20020;-75
2022/04/12 09:58:15;;;;;;;6.97;4.70;;;18.30;74.40;;;;;;5079547;28;20469;-75
2022/04/12 10:00:45;;;;;;;11.32;5.32;;;18.50;74.70;;;;;;5045760;28;20463;-75
2022/04/12 10:03:13;;;;;;;8.27;5.03;;;18.60;74.80;;;;;;5060267;28;20040;-75
2022/04/12 10:05:40;;;;;;;8.18;5.30;;;18.80;74.60;;;;;;5080883;28;20393;-75
2022/04/12 10:08:14;;;;;;;10.52;5.57;;;19.00;74.40;;;;;;5080401;28;20020;-75
2022/04/12 10:10:44;;;;;;;7.82;5.10;;;19.10;73.60;;;;;;5081793;28;20035;-75
2022/04/12 10:13:13;;;;;;;5.80;5.00;;;19.10;72.20;;;;;;5078789;28;20051;-74
2022/04/12 10:15:40;;;;;;;10.43;5.95;;;19.00;72.80;;;;;;5077872;28;20475;-74
2022/04/12 10:18:07;;;;;;;6.72;5.05;;;19.20;73.40;;;;;;5076232;28;20012;-75
2022/04/12 10:20:33;;;;;;;7.95;5.10;;;19.40;73.80;;;;;;5060811;28;20048;-74
2022/04/12 10:23:01;;;;;;;8.95;6.32;;;19.60;73.50;;;;;;5076531;28;20035;-74
2022/04/12 10:25:28;;;;;;;8.52;5.32;;;19.80;72.80;;;;;;5041586;28;20032;-74
2022/04/12 10:27:59;;;;;;;7.80;5.43;;;20.00;71.70;;;;;;5078723;28;20043;-75
2022/04/12 10:30:27;;;;;;;8.63;5.30;;;20.00;71.70;;;;;;5076834;28;20021;-76
2022/04/12 10:33:08;;;;;;;7.43;5.10;;;20.20;70.70;;;;;;5077625;28;20031;-77
2022/04/12 10:35:51;;;;;;;7.70;4.22;;;20.40;70.60;;;;;;5047393;28;20039;-78
2022/04/12 10:38:42;;;;;;;9.50;6.25;;;20.70;70.20;;;;;;5064919;28;20028;-78
2022/04/12 10:41:28;;;;;;;10.27;6.72;;;20.90;68.70;;;;;;5054906;28;20035;-76
2022/04/12 10:43:56;;;;;;;13.73;6.60;;;21.00;67.90;;;;;;5044511;28;20043;-78
2022/04/12 10:46:23;;;;;;;9.52;6.63;;;21.20;68.40;;;;;;5046702;28;20032;-75
2022/04/12 10:48:55;;;;;;;9.13;6.20;;;21.50;67.70;;;;;;5064378;28;20340;-76
2022/04/12 10:51:38;;;;;;;6.95;5.05;;;21.60;66.30;;;;;;5046198;28;20031;-74
2022/04/12 10:54:09;;;;;;;8.07;3.88;;;21.90;65.50;;;;;;5074501;28;20027;-75
2022/04/12 10:56:35;;;;;;;9.10;4.68;;;22.10;65.10;;;;;;5060382;28;20036;-75
2022/04/12 10:59:02;;;;;;;9.57;4.80;;;22.20;64.70;;;;;;5060906;28;20039;-75
2022/04/12 11:01:33;;;;;;;8.65;4.07;;;22.50;64.70;;;;;;5061847;28;20712;-75
2022/04/12 11:04:02;;;;;;;10.57;4.03;;;22.80;64.00;;;;;;5076728;28;20985;-76
2022/04/12 11:06:33;;;;;;;7.00;3.22;;;23.10;62.90;;;;;;5044061;28;20028;-75
2022/04/12 11:09:17;;;;;;;7.97;3.85;;;23.40;62.30;;;;;;5078856;28;20506;-76
2022/04/12 11:11:51;;;;;;;5.10;3.45;;;23.50;61.00;;;;;;5078458;28;20024;-75
2022/04/12 11:14:32;;;;;;;6.25;4.18;;;23.60;60.90;;;;;;5056746;28;20044;-75
2022/04/12 11:17:01;;;;;;;5.05;2.70;;;23.90;59.20;;;;;;5079143;28;20051;-75
2022/04/12 11:19:28;;;;;;;3.95;2.95;;;24.10;58.80;;;;;;5058573;28;20016;-75
2022/04/12 11:21:55;;;;;;;5.80;2.90;;;24.40;58.80;;;;;;5079430;28;20032;-74
2022/04/12 11:24:23;;;;;;;5.53;3.15;;;24.80;58.20;;;;;;5075697;28;20032;-75
2022/04/12 11:27:06;;;;;;;5.50;3.30;;;25.00;57.60;;;;;;5075661;28;20020;-75
2022/04/12 11:29:33;;;;;;;5.78;3.08;;;24.80;56.30;;;;;;5059748;28;20499;-75
2022/04/12 11:31:59;;;;;;;6.68;3.20;;;24.40;56.40;;;;;;5038378;28;20052;-75
2022/04/12 11:34:28;;;;;;;5.13;2.97;;;23.90;56.40;;;;;;5056102;28;20017;-75
2022/04/12 11:37:03;;;;;;;7.75;3.10;;;23.40;56.20;;;;;;5052650;28;20031;-75
2022/04/12 11:39:32;;;;;;;5.00;2.67;;;23.00;57.10;;;;;;5053788;28;20028;-75
2022/04/12 11:42:00;;;;;;;14.10;9.00;;;22.80;57.20;;;;;;5053115;28;20486;-75
2022/04/12 11:44:31;;;;;;;7.93;3.88;;;22.90;58.30;;;;;;5035918;28;20045;-76
2022/04/12 11:47:01;;;;;;;4.80;2.85;;;23.50;56.60;;;;;;5042365;28;20013;-75
2022/04/12 11:49:33;;;;;;;4.15;2.38;;;23.80;56.30;;;;;;5031929;28;20016;-75
2022/04/12 11:52:01;;;;;;;5.25;2.80;;;24.00;55.40;;;;;;5051384;28;20035;-75
2022/04/12 11:54:28;;;;;;;5.68;2.78;;;24.20;55.20;;;;;;5017877;28;20028;-75
2022/04/12 11:57:14;;;;;;;6.97;2.92;;;24.40;55.00;;;;;;5054460;28;20353;-75
2022/04/12 11:59:54;;;;;;;4.78;3.10;;;24.80;54.90;;;;;;5039885;28;20040;-76
2022/04/12 12:02:22;;;;;;;4.05;2.97;;;25.30;54.40;;;;;;5053885;28;20032;-75
2022/04/12 12:04:54;;;;;;;5.97;4.38;;;25.80;53.40;;;;;;5053113;28;20031;-75
2022/04/12 12:07:20;;;;;;;7.13;5.05;;;26.00;52.50;;;;;;5034762;28;20017;-75
2022/04/12 12:09:59;;;;;;;7.90;4.93;;;25.90;51.90;;;;;;5036446;28;20036;-75
2022/04/12 12:12:39;;;;;;;8.13;4.35;;;25.60;51.90;;;;;;5051890;28;20021;-75
2022/04/12 12:15:12;;;;;;;6.55;3.75;;;25.60;52.50;;;;;;5036960;28;20033;-75
2022/04/12 12:17:39;;;;;;;5.57;3.50;;;25.70;53.10;;;;;;5035944;28;20487;-75
2022/04/12 12:20:07;;;;;;;6.78;3.92;;;26.10;53.10;;;;;;5025864;28;20039;-75
2022/04/12 12:22:38;;;;;;;6.07;4.13;;;26.30;52.00;;;;;;5053906;28;21166;-75
2022/04/12 12:25:06;;;;;;;8.73;5.25;;;26.30;51.60;;;;;;5034522;28;20347;-75
2022/04/12 12:27:34;;;;;;;6.03;3.90;;;26.20;50.60;;;;;;5036921;28;20016;-75
2022/04/12 12:30:08;;;;;;;7.75;4.65;;;25.80;51.60;;;;;;5039452;28;20452;-75
2022/04/12 12:32:39;;;;;;;8.57;4.90;;;25.50;52.10;;;;;;5053269;28;20040;-75
2022/04/12 12:35:09;;;;;;;8.70;4.70;;;25.20;52.20;;;;;;5035867;28;20063;-75
2022/04/12 12:37:38;;;;;;;4.97;3.90;;;24.80;52.30;;;;;;5054060;28;20266;-76
2022/04/12 12:40:16;;;;;;;8.18;4.93;;;24.50;53.20;;;;;;5057668;28;20133;-75
2022/04/12 12:42:43;;;;;;;8.18;5.18;;;24.40;53.50;;;;;;5050518;28;20021;-75
2022/04/12 12:45:11;;;;;;;8.63;5.38;;;24.30;54.30;;;;;;5051966;28;20037;-75
2022/04/12 12:47:40;;;;;;;8.38;4.93;;;24.50;54.40;;;;;;5059621;28;20020;-75
2022/04/12 12:50:13;;;;;;;8.27;4.50;;;24.50;53.00;;;;;;5080005;28;20016;-75
2022/04/12 12:52:40;;;;;;;6.43;4.28;;;24.80;52.90;;;;;;5056250;28;20029;-75
2022/04/12 12:55:08;;;;;;;7.10;4.60;;;25.10;52.90;;;;;;5026514;28;20024;-75
2022/04/12 12:57:36;;;;;;;8.52;4.75;;;25.60;52.50;;;;;;5060065;28;20032;-75
2022/04/12 13:00:06;;;;;;;8.00;5.00;;;25.90;52.50;;;;;;5028358;28;20020;-75
2022/04/12 13:02:34;;;;;;;6.82;4.03;;;26.20;51.40;;;;;;5049152;28;20025;-75